createdAt,value
2023-05-05T00:00:30.020Z,10.84
2023-05-05T00:02:57.140Z,10.92
2023-05-05T00:05:25.641Z,10.95
2023-05-05T00:07:52.474Z,10.85
2023-05-05T00:10:19.341Z,10.92
2023-05-05T00:12:46.975Z,10.88
2023-05-05T00:15:14.262Z,10.85
2023-05-05T00:17:41.914Z,10.88
2023-05-05T00:20:10.308Z,10.88
2023-05-05T00:22:37.378Z,10.83
2023-05-05T00:25:05.112Z,10.87
2023-05-05T00:27:33.103Z,10.81
2023-05-05T00:29:59.919Z,10.78
2023-05-05T00:32:27.001Z,10.79
2023-05-05T00:34:54.614Z,10.89
2023-05-05T00:37:21.777Z,10.84
2023-05-05T00:39:48.880Z,10.87
2023-05-05T00:42:15.719Z,10.84
2023-05-05T00:44:42.642Z,10.81
2023-05-05T00:47:09.873Z,10.87
2023-05-05T00:49:38.294Z,10.75
2023-05-05T00:52:05.867Z,10.83
2023-05-05T00:54:34.765Z,10.87
2023-05-05T00:57:04.716Z,10.84
2023-05-05T00:59:33.781Z,10.76
2023-05-05T01:02:00.801Z,10.80
2023-05-05T01:04:28.196Z,10.76
2023-05-05T01:07:32.828Z,10.68
2023-05-05T01:10:19.721Z,10.74
2023-05-05T01:13:31.689Z,10.67
2023-05-05T01:16:12.893Z,10.67
2023-05-05T01:18:50.568Z,10.61
2023-05-05T01:21:23.787Z,10.60
2023-05-05T01:24:11.130Z,10.61
2023-05-05T01:26:51.467Z,10.51
2023-05-05T01:29:57.858Z,10.43
2023-05-05T01:32:30.334Z,10.34
2023-05-05T01:35:01.826Z,10.46
2023-05-05T01:37:40.151Z,10.44
2023-05-05T01:40:09.060Z,10.33
2023-05-05T01:42:36.844Z,10.37
2023-05-05T01:45:06.914Z,10.41
2023-05-05T01:47:34.130Z,10.42
2023-05-05T01:50:02.246Z,10.43
2023-05-05T01:52:30.226Z,10.43
2023-05-05T01:54:58.035Z,10.47
2023-05-05T01:57:26.115Z,10.41
2023-05-05T01:59:53.574Z,10.41
2023-05-05T02:02:22.006Z,10.48
2023-05-05T02:04:50.066Z,10.48
2023-05-05T02:07:17.337Z,10.46
2023-05-05T02:09:45.095Z,10.47
2023-05-05T02:12:12.231Z,10.43
2023-05-05T02:14:40.090Z,10.40
2023-05-05T02:17:07.675Z,10.35
2023-05-05T02:19:38.582Z,10.35
2023-05-05T02:22:06.147Z,10.30
2023-05-05T02:24:34.016Z,10.22
2023-05-05T02:27:04.311Z,10.17
2023-05-05T02:29:52.872Z,10.06
2023-05-05T02:32:28.106Z,10.10
2023-05-05T02:34:56.488Z,10.05
2023-05-05T02:37:24.591Z,10.02
2023-05-05T02:40:00.654Z,9.93
2023-05-05T02:42:40.663Z,9.93
2023-05-05T02:45:13.409Z,9.87
2023-05-05T02:47:43.275Z,9.90
2023-05-05T02:50:11.729Z,9.89
2023-05-05T02:52:45.011Z,9.98
2023-05-05T02:55:13.218Z,9.91
2023-05-05T02:57:48.079Z,9.81
2023-05-05T03:00:27.221Z,9.83
2023-05-05T03:03:06.085Z,9.91
2023-05-05T03:05:49.641Z,9.96
2023-05-05T03:08:18.527Z,9.91
2023-05-05T03:11:34.361Z,9.84
2023-05-05T03:14:12.353Z,9.87
2023-05-05T03:16:42.830Z,9.89
2023-05-05T03:19:11.969Z,9.69
2023-05-05T03:21:41.144Z,9.67
2023-05-05T03:24:19.195Z,9.64
2023-05-05T03:26:58.192Z,9.47
2023-05-05T03:29:32.217Z,9.45
2023-05-05T03:32:01.368Z,9.49
2023-05-05T03:34:29.178Z,9.63
2023-05-05T03:36:57.962Z,9.56
2023-05-05T03:39:24.904Z,9.49
2023-05-05T03:41:52.149Z,9.42
2023-05-05T03:44:20.799Z,9.46
2023-05-05T03:46:47.897Z,9.51
2023-05-05T03:49:15.952Z,9.51
2023-05-05T03:51:44.789Z,9.49
2023-05-05T03:54:11.727Z,9.55
2023-05-05T03:56:40.333Z,9.61
2023-05-05T03:59:07.236Z,9.59
2023-05-05T04:01:35.491Z,9.56
2023-05-05T04:04:02.493Z,9.48
2023-05-05T04:06:29.583Z,9.46
2023-05-05T04:08:56.617Z,9.52
2023-05-05T04:11:24.071Z,9.62
2023-05-05T04:13:51.163Z,9.66
2023-05-05T04:16:18.886Z,9.67
2023-05-05T04:18:46.137Z,9.64
2023-05-05T04:21:13.602Z,9.70
2023-05-05T04:23:41.435Z,9.76
2023-05-05T04:26:08.740Z,9.71
2023-05-05T04:28:35.995Z,9.76
2023-05-05T04:31:05.478Z,9.79
2023-05-05T04:33:36.027Z,9.70
2023-05-05T04:36:03.198Z,9.66
2023-05-05T04:38:30.232Z,9.71
2023-05-05T04:40:57.315Z,9.75
2023-05-05T04:43:24.271Z,9.71
2023-05-05T04:45:55.294Z,9.66
2023-05-05T04:48:25.377Z,9.83
2023-05-05T04:50:52.312Z,9.87
2023-05-05T04:53:19.404Z,10.01
2023-05-05T04:55:46.664Z,10.04
2023-05-05T04:58:13.551Z,10.10
2023-05-05T05:00:43.494Z,10.13
2023-05-05T05:03:10.980Z,10.11
2023-05-05T05:05:38.050Z,10.22
2023-05-05T05:08:05.256Z,10.27
2023-05-05T05:10:32.126Z,10.32
2023-05-05T05:12:58.999Z,10.35
2023-05-05T05:15:27.209Z,10.37
2023-05-05T05:17:54.127Z,10.37
2023-05-05T05:20:21.407Z,10.47
2023-05-05T05:22:48.315Z,10.37
2023-05-05T05:25:18.324Z,10.31
2023-05-05T05:27:55.305Z,10.35
2023-05-05T05:30:34.190Z,10.47
2023-05-05T05:33:03.347Z,10.45
2023-05-05T05:35:30.726Z,10.80
2023-05-05T05:37:58.035Z,11.05
2023-05-05T05:40:25.737Z,10.99
2023-05-05T05:42:52.682Z,11.19
2023-05-05T05:45:19.606Z,11.31
2023-05-05T05:47:46.847Z,11.32
2023-05-05T05:50:14.084Z,11.33
2023-05-05T05:52:41.806Z,11.42
2023-05-05T05:55:09.311Z,11.02
2023-05-05T05:57:37.108Z,10.96
2023-05-05T06:00:06.708Z,11.04
2023-05-05T06:02:38.970Z,10.93
2023-05-05T06:05:10.783Z,10.84
2023-05-05T06:07:37.764Z,10.70
2023-05-05T06:10:22.846Z,10.65
2023-05-05T06:12:55.079Z,10.63
2023-05-05T06:15:23.196Z,10.68
2023-05-05T06:17:50.204Z,10.77
2023-05-05T06:20:17.238Z,10.86
2023-05-05T06:22:44.263Z,10.86
2023-05-05T06:25:11.480Z,10.88
2023-05-05T06:27:38.808Z,10.96
2023-05-05T06:30:07.411Z,10.97
2023-05-05T06:32:34.854Z,11.02
2023-05-05T06:35:02.025Z,10.88
2023-05-05T06:37:30.021Z,11.04
2023-05-05T06:39:57.158Z,11.09
2023-05-05T06:42:24.146Z,11.15
2023-05-05T06:44:52.988Z,11.14
2023-05-05T06:47:19.958Z,11.21
2023-05-05T06:49:46.750Z,11.17
2023-05-05T06:52:13.651Z,11.28
2023-05-05T06:54:40.683Z,11.33
2023-05-05T06:57:07.639Z,11.38
2023-05-05T06:59:34.869Z,11.38
2023-05-05T07:02:01.677Z,11.25
2023-05-05T07:04:28.577Z,11.28
2023-05-05T07:06:55.582Z,11.43
2023-05-05T07:09:22.433Z,11.43
2023-05-05T07:11:50.688Z,11.58
2023-05-05T07:14:17.641Z,11.54
2023-05-05T07:16:44.734Z,11.49
2023-05-05T07:19:11.590Z,11.46
2023-05-05T07:21:40.130Z,11.60
2023-05-05T07:24:07.270Z,11.66
2023-05-05T07:26:34.186Z,11.75
2023-05-05T07:29:02.635Z,11.78
2023-05-05T07:31:29.646Z,11.88
2023-05-05T07:33:56.573Z,11.96
2023-05-05T07:36:23.532Z,12.06
2023-05-05T07:38:50.521Z,12.17
2023-05-05T07:41:18.724Z,12.32
2023-05-05T07:43:46.250Z,12.38
2023-05-05T07:46:14.055Z,12.60
2023-05-05T07:48:41.831Z,12.68
2023-05-05T07:51:09.266Z,12.68
2023-05-05T07:53:36.335Z,12.65
2023-05-05T07:56:03.548Z,12.69
2023-05-05T07:58:30.419Z,12.71
2023-05-05T08:00:57.485Z,12.76
2023-05-05T08:03:25.123Z,12.70
2023-05-05T08:05:54.622Z,12.83
2023-05-05T08:08:25.188Z,12.87
2023-05-05T08:10:53.478Z,12.91
2023-05-05T08:13:20.673Z,12.99
2023-05-05T08:15:48.409Z,13.00
2023-05-05T08:18:15.626Z,13.06
2023-05-05T08:20:42.600Z,13.13
2023-05-05T08:23:09.687Z,13.19
2023-05-05T08:25:36.616Z,13.19
2023-05-05T08:28:03.714Z,13.31
2023-05-05T08:30:32.406Z,13.44
2023-05-05T08:33:00.687Z,13.54
2023-05-05T08:35:27.619Z,13.66
2023-05-05T08:37:58.107Z,13.74
2023-05-05T08:40:30.498Z,13.83
2023-05-05T08:42:57.425Z,13.95
2023-05-05T08:45:24.601Z,14.07
2023-05-05T08:47:51.518Z,14.16
2023-05-05T08:50:19.697Z,14.16
2023-05-05T08:52:51.231Z,14.25
2023-05-05T08:55:24.821Z,14.35
2023-05-05T08:57:54.205Z,14.30
2023-05-05T09:00:22.129Z,14.35
2023-05-05T09:02:49.975Z,14.42
2023-05-05T09:05:17.249Z,14.55
2023-05-05T09:07:44.370Z,14.56
2023-05-05T09:10:12.103Z,14.61
2023-05-05T09:12:42.691Z,14.68
2023-05-05T09:15:11.819Z,14.80
2023-05-05T09:17:39.770Z,14.84
2023-05-05T09:20:08.555Z,14.82
2023-05-05T09:22:46.905Z,14.85
2023-05-05T09:25:15.515Z,14.92
2023-05-05T09:27:47.465Z,14.91
2023-05-05T09:30:17.480Z,15.01
2023-05-05T09:32:49.348Z,14.91
2023-05-05T09:35:17.128Z,14.96
2023-05-05T09:37:44.499Z,14.97
2023-05-05T09:40:13.776Z,14.97
2023-05-05T09:42:41.263Z,15.02
2023-05-05T09:45:17.826Z,15.00
2023-05-05T09:47:48.588Z,15.10
2023-05-05T09:50:16.395Z,15.13
2023-05-05T09:52:43.621Z,15.19
2023-05-05T09:55:19.539Z,15.30
2023-05-05T09:57:47.675Z,15.34
2023-05-05T10:00:15.041Z,15.45
2023-05-05T10:02:42.274Z,15.49
2023-05-05T10:05:13.362Z,15.60
2023-05-05T10:07:42.499Z,15.65
2023-05-05T10:10:11.924Z,15.67
2023-05-05T10:12:39.406Z,15.70
2023-05-05T10:15:09.162Z,15.82
2023-05-05T10:17:38.692Z,15.98
2023-05-05T10:20:07.990Z,16.23
2023-05-05T10:22:35.510Z,16.35
2023-05-05T10:25:35.764Z,16.36
2023-05-05T10:28:06.665Z,16.38
2023-05-05T10:30:37.466Z,16.45
2023-05-05T10:33:30.254Z,16.61
2023-05-05T10:36:01.726Z,16.63
2023-05-05T10:38:30.347Z,16.53
2023-05-05T10:40:58.318Z,16.60
2023-05-05T10:43:25.370Z,16.66
2023-05-05T10:45:53.376Z,16.55
2023-05-05T10:48:28.310Z,16.37
2023-05-05T10:51:02.338Z,16.41
2023-05-05T10:53:39.145Z,16.51
2023-05-05T10:56:21.600Z,16.64
2023-05-05T10:58:59.159Z,16.67
2023-05-05T11:01:33.229Z,16.63
2023-05-05T11:04:22.923Z,16.79
2023-05-05T11:07:09.264Z,16.93
2023-05-05T11:09:55.134Z,17.03
2023-05-05T11:12:22.223Z,17.15
2023-05-05T11:15:38.056Z,17.13
2023-05-05T11:18:07.568Z,17.21
2023-05-05T11:20:35.584Z,17.30
2023-05-05T11:23:02.470Z,17.50
2023-05-05T11:25:47.476Z,17.62
2023-05-05T11:28:15.389Z,17.61
2023-05-05T11:30:58.833Z,17.63
2023-05-05T11:33:37.276Z,17.82
2023-05-05T11:36:07.132Z,17.86
2023-05-05T11:38:37.814Z,17.97
2023-05-05T11:41:37.778Z,17.74
2023-05-05T11:44:15.635Z,17.95
2023-05-05T11:46:51.765Z,17.81
2023-05-05T11:49:28.803Z,17.84
2023-05-05T11:52:03.639Z,17.82
2023-05-05T11:54:30.938Z,17.86
2023-05-05T11:57:02.286Z,18.06
2023-05-05T11:59:29.156Z,18.22
2023-05-05T12:01:56.010Z,18.37
2023-05-05T12:04:23.006Z,18.42
2023-05-05T12:06:50.016Z,18.46
2023-05-05T12:09:21.425Z,18.49
2023-05-05T12:11:59.062Z,18.34
2023-05-05T12:14:26.267Z,18.14
2023-05-05T12:16:56.787Z,18.03
2023-05-05T12:19:23.886Z,17.95
2023-05-05T12:21:51.013Z,18.14
2023-05-05T12:24:18.143Z,18.14
2023-05-05T12:26:45.099Z,18.21
2023-05-05T12:29:12.027Z,18.33
2023-05-05T12:31:39.963Z,18.37
2023-05-05T12:34:09.489Z,18.54
2023-05-05T12:36:37.361Z,18.64
2023-05-05T12:39:05.552Z,18.73
2023-05-05T12:41:33.185Z,18.91
2023-05-05T12:44:01.275Z,18.88
2023-05-05T12:46:29.937Z,18.80
2023-05-05T12:49:07.475Z,18.99
2023-05-05T12:51:36.225Z,19.14
2023-05-05T12:54:11.378Z,19.25
2023-05-05T12:56:46.650Z,19.16
2023-05-05T12:59:22.609Z,19.22
2023-05-05T13:01:50.983Z,19.29
2023-05-05T13:04:18.728Z,19.19
2023-05-05T13:06:49.875Z,19.25
2023-05-05T13:09:36.241Z,19.47
2023-05-05T13:12:04.138Z,19.53
2023-05-05T13:14:37.621Z,19.44
2023-05-05T13:17:04.591Z,19.38
2023-05-05T13:19:31.678Z,19.84
2023-05-05T13:21:58.989Z,19.70
2023-05-05T13:24:42.204Z,19.87
2023-05-05T13:27:13.217Z,19.90
2023-05-05T13:29:41.872Z,20.19
2023-05-05T13:32:08.788Z,20.69
2023-05-05T13:34:35.649Z,20.67
2023-05-05T13:37:02.457Z,20.68
2023-05-05T13:39:29.267Z,20.50
2023-05-05T13:41:56.412Z,20.86
2023-05-05T13:44:23.333Z,20.93
2023-05-05T13:46:50.331Z,20.86
2023-05-05T13:49:17.456Z,20.82
2023-05-05T13:51:46.161Z,21.14
2023-05-05T13:54:13.097Z,21.09
2023-05-05T13:56:40.036Z,21.22
2023-05-05T13:59:06.923Z,21.10
2023-05-05T14:01:33.890Z,21.16
2023-05-05T14:04:03.635Z,21.10
2023-05-05T14:06:32.827Z,21.48
2023-05-05T14:08:59.870Z,21.27
2023-05-05T14:11:26.736Z,21.25
2023-05-05T14:13:53.617Z,21.39
2023-05-05T14:16:20.497Z,21.59
2023-05-05T14:18:47.366Z,21.46
2023-05-05T14:21:14.284Z,21.33
2023-05-05T14:23:41.308Z,21.50
2023-05-05T14:26:09.323Z,21.55
2023-05-05T14:28:36.299Z,21.48
2023-05-05T14:31:03.148Z,21.30
2023-05-05T14:33:29.975Z,21.77
2023-05-05T14:35:56.948Z,21.64
2023-05-05T14:38:24.515Z,21.32
2023-05-05T14:40:51.437Z,20.70
2023-05-05T14:43:18.313Z,20.55
2023-05-05T14:45:45.288Z,20.23
2023-05-05T14:48:12.277Z,20.55
2023-05-05T14:50:40.770Z,20.90
2023-05-05T14:53:07.583Z,20.77
2023-05-05T14:55:34.576Z,20.51
2023-05-05T14:58:01.493Z,20.03
2023-05-05T15:00:28.785Z,19.97
2023-05-05T15:02:55.746Z,19.87
2023-05-05T15:05:22.658Z,19.72
2023-05-05T15:07:49.543Z,19.65
2023-05-05T15:10:16.749Z,19.41
2023-05-05T15:12:43.675Z,19.33
2023-05-05T15:15:11.057Z,19.46
2023-05-05T15:17:39.224Z,19.28
2023-05-05T15:20:07.020Z,19.12
2023-05-05T15:22:34.198Z,18.87
2023-05-05T15:25:01.720Z,18.75
2023-05-05T15:27:29.550Z,18.62
2023-05-05T15:29:56.422Z,18.65
2023-05-05T15:32:23.354Z,18.75
2023-05-05T15:34:50.499Z,19.19
2023-05-05T15:37:17.636Z,19.15
2023-05-05T15:39:44.481Z,19.09
2023-05-05T15:42:11.367Z,19.07
2023-05-05T15:44:38.337Z,19.08
2023-05-05T15:47:05.510Z,19.03
2023-05-05T15:49:32.514Z,18.83
2023-05-05T15:51:59.403Z,18.83
2023-05-05T15:54:26.288Z,18.79
2023-05-05T15:56:53.183Z,18.64
2023-05-05T15:59:20.076Z,18.47
2023-05-05T16:01:47.512Z,18.37
2023-05-05T16:04:14.558Z,18.53
2023-05-05T16:06:53.451Z,18.57
2023-05-05T16:09:20.299Z,18.61
2023-05-05T16:11:47.652Z,18.62
2023-05-05T16:14:14.466Z,18.63
2023-05-05T16:16:41.380Z,18.43
2023-05-05T16:19:08.880Z,18.33
2023-05-05T16:21:35.799Z,18.20
2023-05-05T16:24:02.647Z,17.99
2023-05-05T16:26:29.564Z,17.98
2023-05-05T16:28:56.405Z,17.91
2023-05-05T16:31:23.786Z,17.80
2023-05-05T16:33:50.694Z,17.69
2023-05-05T16:36:17.533Z,17.48
2023-05-05T16:38:44.398Z,17.37
2023-05-05T16:41:11.668Z,17.50
2023-05-05T16:43:38.632Z,17.48
2023-05-05T16:46:06.985Z,17.35
2023-05-05T16:48:33.873Z,17.25
2023-05-05T16:51:01.129Z,17.16
2023-05-05T16:53:28.001Z,17.09
2023-05-05T16:55:55.172Z,16.97
2023-05-05T16:58:22.965Z,16.92
2023-05-05T17:00:50.461Z,16.73
2023-05-05T17:03:18.385Z,16.71
2023-05-05T17:05:50.037Z,16.80
2023-05-05T17:08:18.606Z,16.70
2023-05-05T17:10:46.949Z,16.53
2023-05-05T17:13:15.759Z,16.53
2023-05-05T17:15:45.485Z,16.53
2023-05-05T17:18:13.369Z,16.34
2023-05-05T17:20:40.974Z,16.29
2023-05-05T17:23:09.142Z,16.36
2023-05-05T17:25:36.710Z,16.19
2023-05-05T17:28:04.832Z,16.17
2023-05-05T17:30:35.237Z,16.10
2023-05-05T17:33:02.973Z,16.18
2023-05-05T17:35:30.553Z,16.05
2023-05-05T17:37:58.203Z,16.03
2023-05-05T17:40:25.988Z,15.89
2023-05-05T17:42:53.245Z,15.87
2023-05-05T17:45:20.620Z,15.88
2023-05-05T17:47:48.231Z,15.87
2023-05-05T17:50:15.715Z,15.77
2023-05-05T17:52:45.500Z,15.76
2023-05-05T17:55:13.545Z,15.66
2023-05-05T17:57:41.339Z,15.60
2023-05-05T18:00:10.002Z,15.54
2023-05-05T18:02:40.139Z,15.45
2023-05-05T18:05:07.473Z,15.43
2023-05-05T18:07:34.646Z,15.35
2023-05-05T18:10:01.626Z,15.41
2023-05-05T18:12:28.822Z,15.34
2023-05-05T18:14:55.642Z,15.29
2023-05-05T18:17:22.487Z,15.34
2023-05-05T18:19:50.050Z,15.28
2023-05-05T18:22:17.266Z,15.26
2023-05-05T18:24:44.119Z,15.20
2023-05-05T18:27:10.995Z,15.17
2023-05-05T18:29:37.971Z,15.17
2023-05-05T18:32:06.684Z,15.14
2023-05-05T18:34:33.720Z,15.15
2023-05-05T18:37:00.801Z,15.05
2023-05-05T18:39:27.701Z,14.99
2023-05-05T18:41:54.631Z,14.79
2023-05-05T18:44:21.759Z,14.80
2023-05-05T18:46:48.776Z,14.81
2023-05-05T18:49:15.813Z,14.70
2023-05-05T18:51:43.373Z,14.58
2023-05-05T18:54:10.216Z,14.60
2023-05-05T18:56:37.325Z,14.55
2023-05-05T18:59:05.007Z,14.60
2023-05-05T19:01:31.925Z,14.56
2023-05-05T19:03:58.853Z,14.55
2023-05-05T19:06:26.112Z,14.52
2023-05-05T19:08:54.048Z,14.50
2023-05-05T19:11:21.138Z,14.42
2023-05-05T19:13:48.218Z,14.47
2023-05-05T19:16:15.173Z,14.62
2023-05-05T19:18:44.157Z,14.47
2023-05-05T19:21:11.089Z,14.43
2023-05-05T19:23:38.427Z,14.49
2023-05-05T19:26:05.977Z,14.16
2023-05-05T19:28:33.224Z,14.19
2023-05-05T19:31:00.173Z,13.97
2023-05-05T19:33:27.160Z,13.97
2023-05-05T19:35:54.043Z,14.05
2023-05-05T19:38:21.012Z,14.01
2023-05-05T19:40:47.842Z,13.98
2023-05-05T19:43:14.680Z,13.93
2023-05-05T19:45:41.660Z,13.77
2023-05-05T19:48:08.702Z,13.71
2023-05-05T19:50:35.680Z,13.78
2023-05-05T19:53:03.828Z,13.65
2023-05-05T19:55:31.040Z,13.61
2023-05-05T19:57:57.928Z,13.61
2023-05-05T20:00:26.299Z,13.55
2023-05-05T20:02:53.378Z,13.57
2023-05-05T20:05:20.527Z,13.46
2023-05-05T20:07:47.586Z,13.60
2023-05-05T20:10:15.902Z,13.52
2023-05-05T20:12:48.310Z,13.39
2023-05-05T20:15:18.907Z,13.41
2023-05-05T20:17:49.451Z,13.21
2023-05-05T20:20:22.264Z,13.41
2023-05-05T20:22:49.836Z,13.47
2023-05-05T20:25:17.186Z,13.35
2023-05-05T20:27:45.529Z,13.26
2023-05-05T20:30:13.529Z,13.33
2023-05-05T20:32:40.999Z,13.27
2023-05-05T20:35:08.648Z,13.23
2023-05-05T20:37:35.581Z,13.38
2023-05-05T20:40:02.593Z,13.28
2023-05-05T20:42:30.029Z,13.13
2023-05-05T20:44:57.185Z,13.06
2023-05-05T20:47:24.520Z,13.08
2023-05-05T20:49:52.676Z,13.12
2023-05-05T20:52:19.725Z,13.09
2023-05-05T20:54:46.569Z,13.25
2023-05-05T20:57:13.543Z,13.18
2023-05-05T20:59:40.464Z,13.08
2023-05-05T21:02:07.794Z,13.04
2023-05-05T21:04:34.821Z,13.18
2023-05-05T21:07:01.686Z,13.02
2023-05-05T21:09:28.875Z,12.96
2023-05-05T21:11:56.462Z,12.84
2023-05-05T21:14:23.960Z,12.98
2023-05-05T21:16:51.279Z,12.98
2023-05-05T21:19:18.173Z,12.87
2023-05-05T21:21:45.092Z,12.77
2023-05-05T21:24:13.286Z,12.67
2023-05-05T21:26:46.296Z,12.65
2023-05-05T21:29:13.247Z,12.72
2023-05-05T21:31:40.079Z,12.60
2023-05-05T21:34:07.041Z,12.70
2023-05-05T21:36:34.203Z,12.61
2023-05-05T21:39:01.220Z,12.57
2023-05-05T21:41:28.364Z,12.57
2023-05-05T21:43:55.920Z,12.67
2023-05-05T21:46:23.003Z,12.66
2023-05-05T21:48:50.144Z,12.61
2023-05-05T21:51:18.762Z,12.57
2023-05-05T21:53:46.671Z,12.49
2023-05-05T21:56:13.610Z,12.45
2023-05-05T21:58:41.360Z,12.58
2023-05-05T22:01:08.645Z,12.60
2023-05-05T22:03:36.112Z,12.63
2023-05-05T22:06:21.661Z,12.73
2023-05-05T22:09:07.058Z,12.68
2023-05-05T22:11:34.289Z,12.49
2023-05-05T22:14:01.497Z,12.56
2023-05-05T22:16:29.388Z,12.44
2023-05-05T22:18:56.772Z,12.52
2023-05-05T22:21:23.881Z,12.32
2023-05-05T22:23:51.903Z,12.21
2023-05-05T22:26:18.897Z,12.23
2023-05-05T22:28:46.662Z,12.27
2023-05-05T22:31:14.041Z,12.46
2023-05-05T22:33:40.918Z,12.46
2023-05-05T22:36:09.459Z,12.38
2023-05-05T22:38:36.421Z,12.40
2023-05-05T22:41:03.305Z,12.35
2023-05-05T22:43:30.233Z,12.22
2023-05-05T22:45:57.147Z,12.25
2023-05-05T22:48:24.323Z,12.01
2023-05-05T22:50:51.755Z,12.22
2023-05-05T22:53:18.639Z,12.25
2023-05-05T23:02:06.554Z,11.80
2023-05-05T23:04:33.433Z,11.84
2023-05-05T23:07:00.301Z,12.00
2023-05-05T23:09:27.120Z,12.02
2023-05-05T23:11:54.010Z,11.89
2023-05-05T23:14:20.978Z,11.87
2023-05-05T23:16:48.011Z,11.94
2023-05-05T23:19:15.041Z,11.96
2023-05-05T23:21:51.888Z,11.87
2023-05-05T23:24:20.467Z,11.69
2023-05-05T23:26:47.373Z,11.65
2023-05-05T23:29:14.437Z,11.74
2023-05-05T23:31:41.379Z,11.73
2023-05-05T23:34:08.200Z,11.66
2023-05-05T23:36:35.002Z,11.82
2023-05-05T23:39:01.797Z,11.79
2023-05-05T23:41:28.666Z,11.88
2023-05-05T23:43:55.466Z,11.95
2023-05-05T23:46:22.500Z,11.81
2023-05-05T23:48:50.267Z,11.76
2023-05-05T23:51:17.744Z,11.66
2023-05-05T23:53:44.616Z,11.69
2023-05-05T23:56:11.883Z,11.67
2023-05-05T23:58:38.932Z,11.65
